OCN52 EDDF-KMSP
Flight info
| Callsign | OCN52 |
|---|---|
| Flight time | N/A |
| Altitude | 36000 |
| Route | OBOKA5G/25C OBOKA Z28 DIBIR DCT BUDIP DCT MIMVA L602 EMLON M79 TENDO DCT ASLIB/N0486F380 DCT TRN DCT AMCON DCT AMLAD DCT SUNOT/M085F390 NATA HOIST/N0494F400 DCT BROME DCT PEMLU DCT YQT DCT DLH DCT MILAC BAINY4 |
| Aircraft | A359/H-SDE2E3GHIJ3J4J5LM1ORWXY/LB1D1 |
Departure
| Time | N/A |
|---|---|
| Airport | Frankfurt Main Airport (EDDF) |
Arrival
| Time | 2026-05-05 23:12 |
|---|---|
| Airport | Minneapolis–Saint Paul International Airport / Wold–Chamberlain Field (KMSP) |
| Time | Latitude | Longitude | Altitude | Speed | Heading |
|---|---|---|---|---|---|
| 2026-05-05 18:24 | 58.00790 | -39.79686 | 38192 ft | 490 kts | 264° |
| 2026-05-05 18:25 | 58.00547 | -39.86100 | 38193 ft | 490 kts | 264° |
| 2026-05-05 18:25 | 58.00051 | -39.98916 | 38183 ft | 491 kts | 264° |
| 2026-05-05 18:26 | 57.99421 | -40.11718 | 38183 ft | 490 kts | 261° |
| 2026-05-05 18:26 | 57.98607 | -40.24467 | 38185 ft | 490 kts | 261° |
| 2026-05-05 18:27 | 57.97787 | -40.37210 | 38183 ft | 490 kts | 261° |
| 2026-05-05 18:27 | 57.96983 | -40.49971 | 38183 ft | 491 kts | 261° |
| 2026-05-05 18:28 | 57.95772 | -40.69128 | 38173 ft | 492 kts | 261° |
| 2026-05-05 18:28 | 57.94947 | -40.81929 | 38173 ft | 492 kts | 260° |
| 2026-05-05 18:29 | 57.94108 | -40.94729 | 38179 ft | 493 kts | 260° |
| 2026-05-05 18:29 | 57.93254 | -41.07545 | 38172 ft | 494 kts | 260° |
| 2026-05-05 18:30 | 57.92389 | -41.20293 | 38174 ft | 495 kts | 259° |
| 2026-05-05 18:30 | 57.91508 | -41.33120 | 38169 ft | 496 kts | 259° |
| 2026-05-05 18:31 | 57.90613 | -41.45981 | 38165 ft | 496 kts | 259° |
| 2026-05-05 18:31 | 57.89703 | -41.58837 | 38165 ft | 497 kts | 259° |
| 2026-05-05 18:32 | 57.88777 | -41.71696 | 38166 ft | 497 kts | 259° |
| 2026-05-05 18:32 | 57.87839 | -41.84559 | 38170 ft | 497 kts | 259° |
| 2026-05-05 18:33 | 57.86886 | -41.97438 | 38183 ft | 498 kts | 259° |
| 2026-05-05 18:33 | 57.85923 | -42.10314 | 38183 ft | 498 kts | 258° |
| 2026-05-05 18:34 | 57.84945 | -42.23180 | 38184 ft | 498 kts | 258° |
| 2026-05-05 18:34 | 57.83956 | -42.36030 | 38174 ft | 498 kts | 258° |
| 2026-05-05 18:35 | 57.82953 | -42.48887 | 38174 ft | 498 kts | 258° |
| 2026-05-05 18:35 | 57.81930 | -42.61753 | 38176 ft | 499 kts | 258° |
| 2026-05-05 18:36 | 57.80900 | -42.74620 | 38120 ft | 499 kts | 258° |
| 2026-05-05 18:36 | 57.79853 | -42.87492 | 38119 ft | 500 kts | 258° |
| 2026-05-05 18:37 | 57.78786 | -43.00386 | 38120 ft | 502 kts | 257° |
| 2026-05-05 18:37 | 57.77707 | -43.13309 | 38119 ft | 503 kts | 257° |
| 2026-05-05 18:38 | 57.76613 | -43.26252 | 38118 ft | 503 kts | 257° |
| 2026-05-05 18:38 | 57.75509 | -43.39125 | 38107 ft | 505 kts | 257° |
| 2026-05-05 18:39 | 57.74384 | -43.52128 | 38108 ft | 506 kts | 257° |
| 2026-05-05 18:39 | 57.73249 | -43.65140 | 38107 ft | 507 kts | 257° |
| 2026-05-05 18:40 | 57.72086 | -43.78191 | 38108 ft | 509 kts | 257° |
| 2026-05-05 18:40 | 57.70915 | -43.91239 | 38106 ft | 508 kts | 257° |
| 2026-05-05 18:41 | 57.69729 | -44.04273 | 38108 ft | 508 kts | 257° |
| 2026-05-05 18:41 | 57.68528 | -44.17288 | 38103 ft | 509 kts | 256° |
| 2026-05-05 18:42 | 57.67313 | -44.30319 | 38097 ft | 509 kts | 256° |
| 2026-05-05 18:42 | 57.66090 | -44.43347 | 38101 ft | 509 kts | 256° |
| 2026-05-05 18:43 | 57.64851 | -44.56350 | 38099 ft | 509 kts | 256° |
| 2026-05-05 18:43 | 57.63605 | -44.69260 | 38101 ft | 509 kts | 256° |
| 2026-05-05 18:44 | 57.62344 | -44.82241 | 38101 ft | 508 kts | 256° |
| 2026-05-05 18:44 | 57.61064 | -44.95173 | 38095 ft | 507 kts | 256° |
| 2026-05-05 18:45 | 57.59778 | -45.08091 | 38086 ft | 505 kts | 256° |
| 2026-05-05 18:45 | 57.58479 | -45.20963 | 38093 ft | 505 kts | 256° |
| 2026-05-05 18:46 | 57.57160 | -45.33822 | 38092 ft | 507 kts | 256° |
| 2026-05-05 18:46 | 57.55832 | -45.46703 | 38093 ft | 508 kts | 255° |
| 2026-05-05 18:47 | 57.54493 | -45.59633 | 38044 ft | 508 kts | 256° |
| 2026-05-05 18:47 | 57.53141 | -45.72512 | 38016 ft | 507 kts | 255° |
| 2026-05-05 18:48 | 57.51770 | -45.85384 | 38016 ft | 505 kts | 255° |
| 2026-05-05 18:48 | 57.50392 | -45.98218 | 38019 ft | 507 kts | 255° |
| 2026-05-05 18:49 | 57.48992 | -46.11119 | 38012 ft | 508 kts | 255° |
| 2026-05-05 18:49 | 57.47588 | -46.24002 | 38010 ft | 509 kts | 255° |
| 2026-05-05 18:50 | 57.46173 | -46.36825 | 38005 ft | 509 kts | 255° |
| 2026-05-05 18:50 | 57.44728 | -46.49706 | 38009 ft | 509 kts | 255° |
| 2026-05-05 18:51 | 57.43255 | -46.62663 | 38009 ft | 511 kts | 255° |
| 2026-05-05 18:51 | 57.41801 | -46.75461 | 37999 ft | 509 kts | 255° |
| 2026-05-05 18:52 | 57.40329 | -46.88280 | 37999 ft | 507 kts | 255° |
| 2026-05-05 18:52 | 57.38848 | -47.01027 | 37999 ft | 507 kts | 255° |
| 2026-05-05 18:53 | 57.37354 | -47.13812 | 37999 ft | 508 kts | 255° |
| 2026-05-05 18:53 | 57.35841 | -47.26613 | 37990 ft | 509 kts | 254° |
| 2026-05-05 18:54 | 57.34305 | -47.39396 | 37987 ft | 509 kts | 254° |
| 2026-05-05 18:54 | 57.32753 | -47.52165 | 37990 ft | 507 kts | 254° |
| 2026-05-05 18:55 | 57.31187 | -47.64941 | 37988 ft | 509 kts | 254° |
| 2026-05-05 18:55 | 57.29633 | -47.77699 | 37981 ft | 511 kts | 254° |
| 2026-05-05 18:56 | 57.28062 | -47.90475 | 37982 ft | 510 kts | 253° |
| 2026-05-05 18:56 | 57.26460 | -48.03263 | 37980 ft | 510 kts | 253° |
| 2026-05-05 18:57 | 57.24850 | -48.16008 | 37978 ft | 510 kts | 253° |
| 2026-05-05 18:57 | 57.23225 | -48.28768 | 37971 ft | 511 kts | 253° |
| 2026-05-05 18:58 | 57.21582 | -48.41526 | 37977 ft | 510 kts | 253° |
| 2026-05-05 18:58 | 57.19927 | -48.54283 | 37959 ft | 511 kts | 253° |
| 2026-05-05 18:59 | 57.18274 | -48.66920 | 37964 ft | 510 kts | 253° |
| 2026-05-05 18:59 | 57.16595 | -48.79646 | 37960 ft | 510 kts | 253° |
| 2026-05-05 19:00 | 57.14911 | -48.92322 | 37957 ft | 510 kts | 253° |
| 2026-05-05 19:00 | 57.13212 | -49.04986 | 37951 ft | 510 kts | 253° |
| 2026-05-05 19:01 | 57.11496 | -49.17665 | 37954 ft | 511 kts | 253° |
| 2026-05-05 19:01 | 57.09768 | -49.30328 | 37941 ft | 511 kts | 252° |
| 2026-05-05 19:02 | 57.08025 | -49.42978 | 37948 ft | 510 kts | 252° |
| 2026-05-05 19:02 | 57.06274 | -49.55619 | 37939 ft | 510 kts | 252° |
| 2026-05-05 19:03 | 57.04509 | -49.68239 | 37948 ft | 510 kts | 252° |
| 2026-05-05 19:03 | 57.02728 | -49.80866 | 37933 ft | 511 kts | 252° |
| 2026-05-05 19:04 | 57.00936 | -49.93483 | 37935 ft | 511 kts | 252° |
| 2026-05-05 19:04 | 56.98613 | -50.05705 | 37924 ft | 506 kts | 244° |
| 2026-05-05 19:05 | 56.95826 | -50.17546 | 37921 ft | 506 kts | 243° |
| 2026-05-05 19:05 | 56.92954 | -50.29318 | 37918 ft | 506 kts | 243° |
| 2026-05-05 19:06 | 56.90073 | -50.41066 | 37915 ft | 506 kts | 243° |
| 2026-05-05 19:06 | 56.87195 | -50.52790 | 37907 ft | 505 kts | 243° |
| 2026-05-05 19:07 | 56.84798 | -50.62531 | 37906 ft | 506 kts | 243° |
| 2026-05-05 19:07 | 56.81416 | -50.76206 | 37893 ft | 505 kts | 242° |
| 2026-05-05 19:08 | 56.78512 | -50.87880 | 37896 ft | 506 kts | 242° |
| 2026-05-05 19:08 | 56.75610 | -50.99469 | 37883 ft | 506 kts | 242° |
| 2026-05-05 19:09 | 56.72685 | -51.11103 | 37890 ft | 505 kts | 242° |
| 2026-05-05 19:09 | 56.69749 | -51.22724 | 37879 ft | 505 kts | 242° |
| 2026-05-05 19:10 | 56.66800 | -51.34325 | 37863 ft | 504 kts | 242° |
| 2026-05-05 19:10 | 56.63847 | -51.45882 | 37866 ft | 504 kts | 242° |
| 2026-05-05 19:11 | 56.60882 | -51.57427 | 37864 ft | 504 kts | 242° |
| 2026-05-05 19:11 | 56.57914 | -51.68927 | 37861 ft | 503 kts | 242° |
| 2026-05-05 19:12 | 56.54933 | -51.80418 | 37827 ft | 503 kts | 242° |
| 2026-05-05 19:12 | 56.51950 | -51.91859 | 37758 ft | 503 kts | 242° |
| 2026-05-05 19:13 | 56.49461 | -52.01362 | 37696 ft | 502 kts | 242° |
| 2026-05-05 19:13 | 56.46459 | -52.12769 | 37647 ft | 502 kts | 242° |
| 2026-05-05 19:14 | 56.43445 | -52.24160 | 37645 ft | 502 kts | 242° |
| 2026-05-05 19:14 | 56.40424 | -52.35518 | 37645 ft | 502 kts | 242° |
| 2026-05-05 19:15 | 56.37394 | -52.46854 | 37638 ft | 502 kts | 242° |
| 2026-05-05 19:15 | 56.34351 | -52.58185 | 37592 ft | 502 kts | 242° |
| 2026-05-05 19:16 | 56.31297 | -52.69503 | 37596 ft | 502 kts | 242° |
| 2026-05-05 19:16 | 56.28233 | -52.80800 | 37614 ft | 502 kts | 241° |
| 2026-05-05 19:17 | 56.25155 | -52.92087 | 37617 ft | 502 kts | 241° |
| 2026-05-05 19:17 | 56.22067 | -53.03363 | 37609 ft | 503 kts | 241° |
| 2026-05-05 19:18 | 56.18972 | -53.14611 | 37599 ft | 503 kts | 241° |
| 2026-05-05 19:18 | 56.15863 | -53.25850 | 37612 ft | 502 kts | 241° |
| 2026-05-05 19:19 | 56.12751 | -53.37044 | 37599 ft | 501 kts | 241° |
| 2026-05-05 19:19 | 56.09629 | -53.48218 | 37596 ft | 501 kts | 241° |
| 2026-05-05 19:20 | 56.06498 | -53.59366 | 37597 ft | 501 kts | 241° |
| 2026-05-05 19:20 | 56.03361 | -53.70489 | 37600 ft | 500 kts | 241° |
| 2026-05-05 19:21 | 56.00216 | -53.81584 | 37590 ft | 500 kts | 241° |
| 2026-05-05 19:21 | 55.97064 | -53.92652 | 37585 ft | 499 kts | 241° |
| 2026-05-05 19:22 | 55.93905 | -54.03692 | 37592 ft | 499 kts | 241° |
| 2026-05-05 19:22 | 55.90737 | -54.14711 | 37596 ft | 499 kts | 241° |
| 2026-05-05 19:23 | 55.87582 | -54.25632 | 37591 ft | 499 kts | 241° |
| 2026-05-05 19:23 | 55.84396 | -54.36612 | 37576 ft | 499 kts | 241° |
| 2026-05-05 19:24 | 55.81205 | -54.47558 | 37581 ft | 498 kts | 241° |
| 2026-05-05 19:24 | 55.78008 | -54.58465 | 37579 ft | 497 kts | 241° |
| 2026-05-05 19:25 | 55.74808 | -54.69338 | 37576 ft | 497 kts | 241° |
| 2026-05-05 19:25 | 55.71603 | -54.80180 | 37582 ft | 496 kts | 241° |
| 2026-05-05 19:26 | 55.68393 | -54.90984 | 37569 ft | 495 kts | 240° |
| 2026-05-05 19:26 | 55.65180 | -55.01751 | 37573 ft | 494 kts | 241° |
| 2026-05-05 19:27 | 55.61959 | -55.12495 | 37572 ft | 494 kts | 240° |
| 2026-05-05 19:27 | 55.58731 | -55.23211 | 37572 ft | 494 kts | 240° |
| 2026-05-05 19:28 | 55.55495 | -55.33911 | 37569 ft | 493 kts | 240° |
| 2026-05-05 19:28 | 55.52251 | -55.44580 | 37570 ft | 493 kts | 240° |
| 2026-05-05 19:29 | 55.48998 | -55.55235 | 37562 ft | 493 kts | 240° |
| 2026-05-05 19:29 | 55.45739 | -55.65864 | 37561 ft | 493 kts | 240° |
| 2026-05-05 19:30 | 55.42467 | -55.76486 | 37561 ft | 493 kts | 240° |
| 2026-05-05 19:30 | 55.39189 | -55.87090 | 37562 ft | 493 kts | 240° |
| 2026-05-05 19:31 | 55.35902 | -55.97672 | 37553 ft | 493 kts | 240° |
| 2026-05-05 19:31 | 55.32602 | -56.08235 | 37553 ft | 493 kts | 240° |
| 2026-05-05 19:32 | 55.29304 | -56.18750 | 37551 ft | 492 kts | 240° |
| 2026-05-05 19:32 | 55.25998 | -56.29256 | 37552 ft | 492 kts | 240° |
| 2026-05-05 19:33 | 55.22684 | -56.39732 | 37553 ft | 491 kts | 240° |
| 2026-05-05 19:33 | 55.19363 | -56.50183 | 37552 ft | 490 kts | 240° |
| 2026-05-05 19:34 | 55.16041 | -56.60590 | 37552 ft | 490 kts | 240° |
| 2026-05-05 19:35 | 55.11040 | -56.76177 | 37552 ft | 490 kts | 240° |
| 2026-05-05 19:35 | 55.07699 | -56.86537 | 37550 ft | 489 kts | 240° |
| 2026-05-05 19:36 | 55.04448 | -56.96946 | 37524 ft | 489 kts | 245° |
| 2026-05-05 19:36 | 55.02439 | -57.08258 | 37523 ft | 490 kts | 257° |
| 2026-05-05 19:37 | 55.01111 | -57.19824 | 37524 ft | 490 kts | 258° |
| 2026-05-05 19:37 | 54.99875 | -57.31502 | 37523 ft | 490 kts | 258° |
| 2026-05-05 19:38 | 54.98616 | -57.43168 | 37514 ft | 490 kts | 258° |
| 2026-05-05 19:38 | 54.97324 | -57.54812 | 37514 ft | 490 kts | 258° |
| 2026-05-05 19:39 | 54.96012 | -57.66443 | 37515 ft | 489 kts | 258° |
| 2026-05-05 19:39 | 54.94692 | -57.78053 | 37515 ft | 489 kts | 258° |
| 2026-05-05 19:40 | 54.93363 | -57.89631 | 37505 ft | 488 kts | 258° |
| 2026-05-05 19:40 | 54.92021 | -58.01207 | 37506 ft | 488 kts | 258° |
| 2026-05-05 19:41 | 54.90670 | -58.12761 | 37507 ft | 487 kts | 258° |
| 2026-05-05 19:41 | 54.89313 | -58.24275 | 37504 ft | 486 kts | 258° |
| 2026-05-05 19:42 | 54.87944 | -58.35787 | 37496 ft | 487 kts | 257° |
| 2026-05-05 19:42 | 54.86567 | -58.47280 | 37495 ft | 486 kts | 257° |
| 2026-05-05 19:43 | 54.85177 | -58.58774 | 37496 ft | 486 kts | 257° |
| 2026-05-05 19:43 | 54.83777 | -58.70253 | 37496 ft | 486 kts | 257° |
| 2026-05-05 19:44 | 54.82367 | -58.81725 | 37496 ft | 486 kts | 257° |
| 2026-05-05 19:44 | 54.80945 | -58.93185 | 37493 ft | 486 kts | 257° |
| 2026-05-05 19:45 | 54.79514 | -59.04630 | 37486 ft | 486 kts | 257° |
| 2026-05-05 19:45 | 54.78072 | -59.16065 | 37486 ft | 486 kts | 257° |
| 2026-05-05 19:46 | 54.76621 | -59.27487 | 37486 ft | 486 kts | 257° |
| 2026-05-05 19:46 | 54.75158 | -59.38900 | 37488 ft | 485 kts | 257° |
| 2026-05-05 19:47 | 54.73685 | -59.50304 | 37496 ft | 485 kts | 257° |
| 2026-05-05 19:47 | 54.72203 | -59.61684 | 37494 ft | 485 kts | 257° |
| 2026-05-05 19:48 | 54.70712 | -59.73046 | 37497 ft | 484 kts | 257° |
| 2026-05-05 19:48 | 54.69212 | -59.84380 | 37496 ft | 483 kts | 257° |
| 2026-05-05 19:49 | 54.67706 | -59.95682 | 37494 ft | 483 kts | 257° |
| 2026-05-05 19:49 | 54.66189 | -60.06982 | 37502 ft | 483 kts | 257° |
| 2026-05-05 19:50 | 54.64673 | -60.18177 | 37506 ft | 481 kts | 256° |
| 2026-05-05 19:50 | 54.63220 | -60.28840 | 37506 ft | 482 kts | 256° |
| 2026-05-05 19:51 | 54.61673 | -60.40096 | 37502 ft | 482 kts | 256° |
| 2026-05-05 19:51 | 54.60117 | -60.51351 | 37509 ft | 483 kts | 256° |
| 2026-05-05 19:52 | 54.58548 | -60.62589 | 37505 ft | 482 kts | 256° |
| 2026-05-05 19:52 | 54.56970 | -60.73818 | 37506 ft | 482 kts | 256° |
| 2026-05-05 19:53 | 54.55382 | -60.85045 | 37514 ft | 482 kts | 256° |
| 2026-05-05 19:53 | 54.53786 | -60.96245 | 37515 ft | 482 kts | 256° |
| 2026-05-05 19:54 | 54.52178 | -61.07451 | 37515 ft | 482 kts | 256° |
| 2026-05-05 19:54 | 54.50561 | -61.18642 | 37515 ft | 483 kts | 256° |
| 2026-05-05 19:55 | 54.48934 | -61.29813 | 37515 ft | 481 kts | 256° |
| 2026-05-05 19:55 | 54.47298 | -61.40960 | 37516 ft | 480 kts | 256° |
| 2026-05-05 19:56 | 54.45655 | -61.52080 | 37515 ft | 479 kts | 256° |
| 2026-05-05 19:56 | 54.44007 | -61.63157 | 37514 ft | 478 kts | 256° |
| 2026-05-05 19:57 | 54.42354 | -61.74205 | 37502 ft | 477 kts | 256° |
| 2026-05-05 19:57 | 54.40691 | -61.85225 | 37503 ft | 477 kts | 255° |
| 2026-05-05 19:58 | 54.39303 | -61.94371 | 37502 ft | 476 kts | 255° |
| 2026-05-05 19:58 | 54.37627 | -62.05346 | 37506 ft | 475 kts | 255° |
| 2026-05-05 19:59 | 54.35943 | -62.16306 | 37496 ft | 475 kts | 255° |
| 2026-05-05 19:59 | 54.34246 | -62.27261 | 37496 ft | 475 kts | 255° |
| 2026-05-05 20:00 | 54.32541 | -62.38204 | 37494 ft | 475 kts | 255° |
| 2026-05-05 20:00 | 54.30826 | -62.49146 | 37496 ft | 476 kts | 255° |
| 2026-05-05 20:01 | 54.29098 | -62.60095 | 37487 ft | 476 kts | 255° |
| 2026-05-05 20:01 | 54.27359 | -62.71034 | 37486 ft | 476 kts | 255° |
| 2026-05-05 20:02 | 54.25611 | -62.81958 | 37487 ft | 476 kts | 255° |
| 2026-05-05 20:02 | 54.23853 | -62.92881 | 37486 ft | 476 kts | 255° |
| 2026-05-05 20:03 | 54.22086 | -63.03789 | 37487 ft | 476 kts | 255° |
| 2026-05-05 20:03 | 54.20307 | -63.14689 | 37476 ft | 476 kts | 255° |
| 2026-05-05 20:04 | 54.18523 | -63.25556 | 37479 ft | 475 kts | 254° |
| 2026-05-05 20:04 | 54.16735 | -63.36385 | 37480 ft | 474 kts | 254° |
| 2026-05-05 20:05 | 54.14939 | -63.47188 | 37477 ft | 472 kts | 254° |
| 2026-05-05 20:05 | 54.13147 | -63.57921 | 37478 ft | 471 kts | 254° |
| 2026-05-05 20:06 | 54.11340 | -63.68657 | 37478 ft | 470 kts | 254° |
| 2026-05-05 20:06 | 54.09541 | -63.79267 | 37476 ft | 469 kts | 254° |
| 2026-05-05 20:07 | 54.07724 | -63.89918 | 37480 ft | 468 kts | 254° |
| 2026-05-05 20:07 | 54.05905 | -64.00550 | 37475 ft | 468 kts | 254° |
| 2026-05-05 20:08 | 54.04077 | -64.11181 | 37479 ft | 468 kts | 254° |
| 2026-05-05 20:08 | 54.02243 | -64.21778 | 37471 ft | 468 kts | 254° |
| 2026-05-05 20:09 | 54.00388 | -64.32396 | 37467 ft | 468 kts | 254° |
| 2026-05-05 20:09 | 53.98524 | -64.43005 | 37466 ft | 468 kts | 253° |
| 2026-05-05 20:10 | 53.96657 | -64.53577 | 37470 ft | 467 kts | 253° |
| 2026-05-05 20:10 | 53.94784 | -64.64114 | 37470 ft | 465 kts | 253° |
| 2026-05-05 20:11 | 53.92913 | -64.74599 | 37467 ft | 464 kts | 253° |
| 2026-05-05 20:11 | 53.91029 | -64.85086 | 37462 ft | 464 kts | 253° |
| 2026-05-05 20:12 | 53.89139 | -64.95539 | 37453 ft | 463 kts | 253° |
| 2026-05-05 20:12 | 53.87244 | -65.05962 | 37460 ft | 462 kts | 253° |
| 2026-05-05 20:13 | 53.85342 | -65.16363 | 37455 ft | 462 kts | 253° |
| 2026-05-05 20:13 | 53.83436 | -65.26743 | 37451 ft | 462 kts | 253° |
| 2026-05-05 20:14 | 53.81517 | -65.37102 | 37448 ft | 460 kts | 252° |
| 2026-05-05 20:14 | 53.79603 | -65.47420 | 37442 ft | 460 kts | 252° |
| 2026-05-05 20:15 | 53.77669 | -65.57764 | 37448 ft | 461 kts | 252° |
| 2026-05-05 20:15 | 53.75730 | -65.68094 | 37443 ft | 461 kts | 252° |
| 2026-05-05 20:16 | 53.73777 | -65.78415 | 37436 ft | 460 kts | 252° |
| 2026-05-05 20:16 | 53.71821 | -65.88721 | 37437 ft | 462 kts | 252° |
| 2026-05-05 20:17 | 53.69861 | -65.99004 | 37436 ft | 461 kts | 252° |
| 2026-05-05 20:17 | 53.67882 | -66.09292 | 37443 ft | 461 kts | 252° |
| 2026-05-05 20:18 | 53.65905 | -66.19512 | 37432 ft | 461 kts | 252° |
| 2026-05-05 20:18 | 53.63914 | -66.29778 | 37429 ft | 461 kts | 252° |
| 2026-05-05 20:19 | 53.61921 | -66.40048 | 37430 ft | 460 kts | 252° |
| 2026-05-05 20:19 | 53.59922 | -66.50263 | 37427 ft | 459 kts | 252° |
| 2026-05-05 20:20 | 53.57904 | -66.60448 | 37428 ft | 460 kts | 251° |
| 2026-05-05 20:20 | 53.55893 | -66.70622 | 37428 ft | 458 kts | 251° |
| 2026-05-05 20:21 | 53.53865 | -66.80798 | 37436 ft | 457 kts | 251° |
| 2026-05-05 20:21 | 53.51831 | -66.90936 | 37432 ft | 458 kts | 251° |
| 2026-05-05 20:22 | 53.49882 | -67.01117 | 37437 ft | 459 kts | 255° |
| 2026-05-05 20:22 | 53.48322 | -67.11491 | 37430 ft | 457 kts | 256° |
| 2026-05-05 20:23 | 53.46829 | -67.21858 | 37430 ft | 457 kts | 256° |
| 2026-05-05 20:23 | 53.45327 | -67.32216 | 37429 ft | 457 kts | 255° |
| 2026-05-05 20:24 | 53.43813 | -67.42499 | 37431 ft | 457 kts | 255° |
| 2026-05-05 20:24 | 53.42281 | -67.52839 | 37428 ft | 457 kts | 255° |
| 2026-05-05 20:25 | 53.40736 | -67.63184 | 37428 ft | 457 kts | 255° |
| 2026-05-05 20:25 | 53.39181 | -67.73520 | 37428 ft | 458 kts | 255° |
| 2026-05-05 20:26 | 53.37622 | -67.83871 | 37431 ft | 458 kts | 255° |
| 2026-05-05 20:26 | 53.36050 | -67.94203 | 37431 ft | 459 kts | 255° |
| 2026-05-05 20:27 | 53.34463 | -68.04552 | 37429 ft | 459 kts | 254° |
| 2026-05-05 20:27 | 53.32873 | -68.14883 | 37429 ft | 458 kts | 254° |
| 2026-05-05 20:28 | 53.31275 | -68.25180 | 37429 ft | 457 kts | 254° |
| 2026-05-05 20:28 | 53.29674 | -68.35446 | 37430 ft | 456 kts | 254° |
| 2026-05-05 20:29 | 53.28065 | -68.45686 | 37431 ft | 455 kts | 253° |
| 2026-05-05 20:29 | 53.26453 | -68.55907 | 37421 ft | 454 kts | 253° |
| 2026-05-05 20:30 | 53.24839 | -68.66078 | 37420 ft | 452 kts | 253° |
| 2026-05-05 20:30 | 53.23214 | -68.76229 | 37420 ft | 452 kts | 253° |
| 2026-05-05 20:31 | 53.21582 | -68.86363 | 37421 ft | 452 kts | 253° |
| 2026-05-05 20:31 | 53.19936 | -68.96495 | 37421 ft | 452 kts | 253° |
| 2026-05-05 20:32 | 53.18292 | -69.06593 | 37419 ft | 451 kts | 253° |
| 2026-05-05 20:32 | 53.16643 | -69.16661 | 37421 ft | 450 kts | 252° |
| 2026-05-05 20:33 | 53.14992 | -69.26706 | 37420 ft | 449 kts | 252° |
| 2026-05-05 20:33 | 53.13330 | -69.36763 | 37420 ft | 450 kts | 252° |
| 2026-05-05 20:34 | 53.11669 | -69.46728 | 37420 ft | 450 kts | 252° |
| 2026-05-05 20:34 | 53.09981 | -69.56771 | 37421 ft | 450 kts | 252° |
| 2026-05-05 20:35 | 53.08295 | -69.66765 | 37420 ft | 449 kts | 252° |
| 2026-05-05 20:35 | 53.06602 | -69.76761 | 37421 ft | 451 kts | 252° |
| 2026-05-05 20:36 | 53.04896 | -69.86752 | 37420 ft | 448 kts | 252° |
| 2026-05-05 20:36 | 53.03187 | -69.96717 | 37422 ft | 447 kts | 252° |
| 2026-05-05 20:37 | 53.01476 | -70.06640 | 37413 ft | 447 kts | 251° |
| 2026-05-05 20:37 | 52.99755 | -70.16558 | 37414 ft | 447 kts | 251° |
| 2026-05-05 20:38 | 52.98029 | -70.26461 | 37408 ft | 446 kts | 251° |
| 2026-05-05 20:38 | 52.96299 | -70.36345 | 37412 ft | 446 kts | 251° |
| 2026-05-05 20:39 | 52.94554 | -70.46230 | 37429 ft | 447 kts | 251° |
| 2026-05-05 20:39 | 52.92803 | -70.56077 | 37432 ft | 445 kts | 251° |
| 2026-05-05 20:40 | 52.91061 | -70.65836 | 37432 ft | 445 kts | 251° |
| 2026-05-05 20:40 | 52.89301 | -70.75662 | 37430 ft | 445 kts | 251° |
| 2026-05-05 20:41 | 52.87528 | -70.85496 | 37434 ft | 446 kts | 250° |
| 2026-05-05 20:41 | 52.85750 | -70.95339 | 37432 ft | 445 kts | 250° |
| 2026-05-05 20:42 | 52.83963 | -71.05154 | 37421 ft | 446 kts | 250° |
| 2026-05-05 20:42 | 52.82163 | -71.14954 | 37420 ft | 445 kts | 250° |
| 2026-05-05 20:43 | 52.80358 | -71.24734 | 37419 ft | 444 kts | 250° |
| 2026-05-05 20:43 | 52.78546 | -71.34509 | 37420 ft | 445 kts | 250° |
| 2026-05-05 20:44 | 52.76723 | -71.44303 | 37422 ft | 446 kts | 250° |
| 2026-05-05 20:44 | 52.74899 | -71.54064 | 37421 ft | 444 kts | 250° |
| 2026-05-05 20:45 | 52.72159 | -71.68621 | 37420 ft | 443 kts | 250° |
| 2026-05-05 20:45 | 52.70322 | -71.78302 | 37420 ft | 443 kts | 250° |
| 2026-05-05 20:46 | 52.68794 | -71.86343 | 37412 ft | 442 kts | 250° |
| 2026-05-05 20:46 | 52.66951 | -71.95993 | 37411 ft | 440 kts | 249° |
| 2026-05-05 20:47 | 52.65101 | -72.05597 | 37411 ft | 439 kts | 249° |
| 2026-05-05 20:47 | 52.62940 | -72.16764 | 37412 ft | 441 kts | 249° |
| 2026-05-05 20:48 | 52.61371 | -72.24822 | 37411 ft | 441 kts | 249° |
| 2026-05-05 20:48 | 52.59497 | -72.34435 | 37413 ft | 442 kts | 249° |
| 2026-05-05 20:49 | 52.57610 | -72.44061 | 37409 ft | 442 kts | 249° |
| 2026-05-05 20:49 | 52.55712 | -72.53691 | 37412 ft | 444 kts | 249° |
| 2026-05-05 20:50 | 52.53799 | -72.63341 | 37414 ft | 444 kts | 249° |
| 2026-05-05 20:50 | 52.51878 | -72.72992 | 37410 ft | 445 kts | 249° |
| 2026-05-05 20:51 | 52.49949 | -72.82598 | 37410 ft | 447 kts | 249° |
| 2026-05-05 20:51 | 52.48000 | -72.92295 | 37411 ft | 448 kts | 249° |
| 2026-05-05 20:52 | 52.46041 | -73.01997 | 37413 ft | 449 kts | 249° |
| 2026-05-05 20:52 | 52.44066 | -73.11720 | 37410 ft | 450 kts | 249° |
| 2026-05-05 20:53 | 52.42080 | -73.21449 | 37411 ft | 451 kts | 249° |
| 2026-05-05 20:53 | 52.40079 | -73.31210 | 37412 ft | 452 kts | 249° |
| 2026-05-05 20:54 | 52.38071 | -73.40951 | 37411 ft | 452 kts | 249° |
| 2026-05-05 20:54 | 52.36050 | -73.50706 | 37412 ft | 452 kts | 249° |
| 2026-05-05 20:55 | 52.34018 | -73.60454 | 37410 ft | 453 kts | 249° |
| 2026-05-05 20:55 | 52.31982 | -73.70190 | 37411 ft | 452 kts | 249° |
| 2026-05-05 20:56 | 52.29939 | -73.79914 | 37421 ft | 452 kts | 249° |
| 2026-05-05 20:56 | 52.27888 | -73.89628 | 37420 ft | 452 kts | 249° |
| 2026-05-05 20:57 | 52.25829 | -73.99332 | 37421 ft | 452 kts | 249° |
| 2026-05-05 20:57 | 52.23764 | -74.09015 | 37420 ft | 452 kts | 249° |
| 2026-05-05 20:58 | 52.21687 | -74.18711 | 37422 ft | 453 kts | 249° |
| 2026-05-05 20:58 | 52.19602 | -74.28395 | 37420 ft | 453 kts | 249° |
| 2026-05-05 20:59 | 52.17505 | -74.38084 | 37420 ft | 453 kts | 249° |
| 2026-05-05 20:59 | 52.15399 | -74.47773 | 37433 ft | 454 kts | 249° |
| 2026-05-05 21:00 | 52.13283 | -74.57465 | 37434 ft | 455 kts | 248° |
| 2026-05-05 21:00 | 52.11154 | -74.67172 | 37440 ft | 456 kts | 248° |
| 2026-05-05 21:01 | 52.09011 | -74.76894 | 37438 ft | 457 kts | 248° |
| 2026-05-05 21:01 | 52.06854 | -74.86630 | 37438 ft | 458 kts | 248° |
| 2026-05-05 21:02 | 52.04700 | -74.96305 | 37436 ft | 459 kts | 248° |
| 2026-05-05 21:02 | 52.02521 | -75.06055 | 37438 ft | 460 kts | 248° |
| 2026-05-05 21:03 | 52.00331 | -75.15808 | 37450 ft | 460 kts | 248° |
| 2026-05-05 21:03 | 51.98122 | -75.25603 | 37445 ft | 457 kts | 248° |
| 2026-05-05 21:04 | 51.95951 | -75.35185 | 37448 ft | 455 kts | 248° |
| 2026-05-05 21:04 | 51.93760 | -75.44811 | 37447 ft | 456 kts | 248° |
| 2026-05-05 21:05 | 51.91556 | -75.54446 | 37449 ft | 457 kts | 248° |
| 2026-05-05 21:05 | 51.89338 | -75.64093 | 37454 ft | 458 kts | 248° |
| 2026-05-05 21:06 | 51.87109 | -75.73750 | 37458 ft | 458 kts | 248° |
| 2026-05-05 21:06 | 51.84871 | -75.83399 | 37455 ft | 458 kts | 248° |
| 2026-05-05 21:07 | 51.82618 | -75.93065 | 37460 ft | 459 kts | 247° |
| 2026-05-05 21:07 | 51.80359 | -76.02719 | 37461 ft | 459 kts | 247° |
| 2026-05-05 21:08 | 51.78089 | -76.12368 | 37462 ft | 460 kts | 247° |
| 2026-05-05 21:08 | 51.75813 | -76.22020 | 37470 ft | 459 kts | 247° |
| 2026-05-05 21:09 | 51.73534 | -76.31642 | 37505 ft | 459 kts | 247° |
| 2026-05-05 21:09 | 51.71247 | -76.41246 | 37501 ft | 459 kts | 247° |
| 2026-05-05 21:10 | 51.68949 | -76.50842 | 37501 ft | 459 kts | 247° |
| 2026-05-05 21:10 | 51.66664 | -76.60351 | 37512 ft | 458 kts | 247° |
| 2026-05-05 21:11 | 51.64344 | -76.69966 | 37514 ft | 458 kts | 247° |
| 2026-05-05 21:11 | 51.62031 | -76.79511 | 37515 ft | 458 kts | 247° |
| 2026-05-05 21:12 | 51.59725 | -76.88978 | 37515 ft | 458 kts | 247° |
| 2026-05-05 21:12 | 51.57394 | -76.98505 | 37519 ft | 458 kts | 247° |
| 2026-05-05 21:13 | 51.55055 | -77.08033 | 37524 ft | 458 kts | 246° |
| 2026-05-05 21:13 | 51.52706 | -77.17553 | 37524 ft | 458 kts | 246° |
| 2026-05-05 21:14 | 51.50351 | -77.27057 | 37524 ft | 459 kts | 246° |
| 2026-05-05 21:14 | 51.47986 | -77.36566 | 37524 ft | 459 kts | 246° |
| 2026-05-05 21:15 | 51.45609 | -77.46078 | 37526 ft | 459 kts | 246° |
| 2026-05-05 21:15 | 51.43227 | -77.55574 | 37534 ft | 459 kts | 246° |
| 2026-05-05 21:16 | 51.40836 | -77.65057 | 37541 ft | 459 kts | 246° |
| 2026-05-05 21:16 | 51.38436 | -77.74544 | 37542 ft | 460 kts | 246° |
| 2026-05-05 21:17 | 51.36029 | -77.84018 | 37541 ft | 460 kts | 246° |
| 2026-05-05 21:17 | 51.33627 | -77.93427 | 37542 ft | 460 kts | 246° |
| 2026-05-05 21:18 | 51.31206 | -78.02877 | 37542 ft | 460 kts | 246° |
| 2026-05-05 21:18 | 51.28768 | -78.12344 | 37542 ft | 462 kts | 246° |
| 2026-05-05 21:19 | 51.26319 | -78.21815 | 37542 ft | 461 kts | 246° |
| 2026-05-05 21:19 | 51.23867 | -78.31267 | 37542 ft | 461 kts | 246° |
| 2026-05-05 21:20 | 51.21408 | -78.40706 | 37544 ft | 461 kts | 246° |
| 2026-05-05 21:20 | 51.18943 | -78.50131 | 37543 ft | 460 kts | 246° |
| 2026-05-05 21:21 | 51.16471 | -78.59534 | 37542 ft | 460 kts | 246° |
| 2026-05-05 21:21 | 51.13993 | -78.68926 | 37542 ft | 460 kts | 246° |
| 2026-05-05 21:22 | 51.11508 | -78.78308 | 37542 ft | 460 kts | 246° |
| 2026-05-05 21:22 | 51.09017 | -78.87674 | 37542 ft | 460 kts | 246° |
| 2026-05-05 21:23 | 51.06517 | -78.97035 | 37542 ft | 460 kts | 245° |
| 2026-05-05 21:23 | 51.04006 | -79.06392 | 37542 ft | 460 kts | 245° |
| 2026-05-05 21:24 | 51.01491 | -79.15735 | 37542 ft | 460 kts | 245° |
| 2026-05-05 21:24 | 50.98967 | -79.25068 | 37542 ft | 460 kts | 245° |
| 2026-05-05 21:25 | 50.96433 | -79.34405 | 37542 ft | 461 kts | 245° |
| 2026-05-05 21:25 | 50.93890 | -79.43732 | 37542 ft | 461 kts | 245° |
| 2026-05-05 21:26 | 50.91337 | -79.53056 | 37543 ft | 461 kts | 245° |
| 2026-05-05 21:26 | 50.88782 | -79.62355 | 37542 ft | 460 kts | 245° |
| 2026-05-05 21:27 | 50.86238 | -79.71579 | 37542 ft | 460 kts | 245° |
| 2026-05-05 21:27 | 50.83672 | -79.80844 | 37542 ft | 459 kts | 245° |
| 2026-05-05 21:28 | 50.81100 | -79.90094 | 37542 ft | 460 kts | 245° |
| 2026-05-05 21:28 | 50.78558 | -79.99351 | 37537 ft | 460 kts | 248° |
| 2026-05-05 21:29 | 50.76392 | -80.08961 | 37652 ft | 467 kts | 250° |
| 2026-05-05 21:29 | 50.75338 | -80.13799 | 37854 ft | 467 kts | 250° |
| 2026-05-05 21:29 | 50.74288 | -80.18653 | 38069 ft | 466 kts | 250° |
| 2026-05-05 21:30 | 50.73239 | -80.23503 | 38234 ft | 467 kts | 250° |
| 2026-05-05 21:30 | 50.72187 | -80.28358 | 38395 ft | 468 kts | 250° |
| 2026-05-05 21:30 | 50.71128 | -80.33227 | 38580 ft | 468 kts | 250° |
| 2026-05-05 21:30 | 50.70067 | -80.38083 | 38754 ft | 469 kts | 250° |
| 2026-05-05 21:31 | 50.69001 | -80.42944 | 38879 ft | 470 kts | 250° |
| 2026-05-05 21:31 | 50.67928 | -80.47818 | 39017 ft | 471 kts | 250° |
| 2026-05-05 21:31 | 50.66853 | -80.52691 | 39199 ft | 470 kts | 250° |
| 2026-05-05 21:31 | 50.65776 | -80.57564 | 39330 ft | 471 kts | 250° |
| 2026-05-05 21:32 | 50.64696 | -80.62436 | 39443 ft | 472 kts | 250° |
| 2026-05-05 21:32 | 50.63612 | -80.67320 | 39521 ft | 473 kts | 250° |
| 2026-05-05 21:32 | 50.61435 | -80.77092 | 39544 ft | 473 kts | 250° |
| 2026-05-05 21:33 | 50.59251 | -80.86847 | 39541 ft | 472 kts | 250° |
| 2026-05-05 21:33 | 50.57060 | -80.96589 | 39540 ft | 472 kts | 250° |
| 2026-05-05 21:34 | 50.54862 | -81.06322 | 39544 ft | 472 kts | 250° |
| 2026-05-05 21:34 | 50.52669 | -81.15982 | 39545 ft | 472 kts | 250° |
| 2026-05-05 21:35 | 50.50456 | -81.25689 | 39555 ft | 472 kts | 250° |
| 2026-05-05 21:35 | 50.48237 | -81.35371 | 39562 ft | 471 kts | 250° |
| 2026-05-05 21:36 | 50.46013 | -81.45037 | 39561 ft | 471 kts | 250° |
| 2026-05-05 21:36 | 50.44144 | -81.53129 | 39570 ft | 470 kts | 250° |
| 2026-05-05 21:37 | 50.41924 | -81.62694 | 39569 ft | 470 kts | 250° |
| 2026-05-05 21:37 | 50.39684 | -81.72300 | 39576 ft | 469 kts | 250° |
| 2026-05-05 21:38 | 50.37440 | -81.81888 | 39582 ft | 468 kts | 250° |
| 2026-05-05 21:38 | 50.35190 | -81.91458 | 39581 ft | 468 kts | 250° |
| 2026-05-05 21:39 | 50.32932 | -82.01011 | 39589 ft | 468 kts | 250° |
| 2026-05-05 21:39 | 50.30669 | -82.10552 | 39591 ft | 468 kts | 250° |
| 2026-05-05 21:40 | 50.28401 | -82.20077 | 39589 ft | 467 kts | 250° |
| 2026-05-05 21:40 | 50.26123 | -82.29599 | 39598 ft | 468 kts | 249° |
| 2026-05-05 21:41 | 50.23837 | -82.39107 | 39599 ft | 468 kts | 249° |
| 2026-05-05 21:41 | 50.21541 | -82.48618 | 39605 ft | 468 kts | 249° |
| 2026-05-05 21:42 | 50.19235 | -82.58134 | 39618 ft | 468 kts | 249° |
| 2026-05-05 21:42 | 50.16921 | -82.67636 | 39618 ft | 469 kts | 249° |
| 2026-05-05 21:43 | 50.14594 | -82.77144 | 39617 ft | 469 kts | 249° |
| 2026-05-05 21:43 | 50.12260 | -82.86647 | 39618 ft | 469 kts | 249° |
| 2026-05-05 21:44 | 50.09916 | -82.96146 | 39627 ft | 471 kts | 249° |
| 2026-05-05 21:44 | 50.07558 | -83.05661 | 39626 ft | 471 kts | 249° |
| 2026-05-05 21:45 | 50.05195 | -83.15158 | 39627 ft | 471 kts | 249° |
| 2026-05-05 21:45 | 50.02825 | -83.24648 | 39626 ft | 470 kts | 249° |
| 2026-05-05 21:46 | 50.00449 | -83.34120 | 39627 ft | 470 kts | 249° |
| 2026-05-05 21:46 | 49.98067 | -83.43567 | 39636 ft | 468 kts | 249° |
| 2026-05-05 21:47 | 49.95691 | -83.52948 | 39628 ft | 465 kts | 249° |
| 2026-05-05 21:47 | 49.93318 | -83.62291 | 39636 ft | 465 kts | 249° |
| 2026-05-05 21:48 | 49.90952 | -83.71564 | 39636 ft | 466 kts | 249° |
| 2026-05-05 21:48 | 49.88556 | -83.80915 | 39636 ft | 466 kts | 249° |
| 2026-05-05 21:49 | 49.86154 | -83.90254 | 39636 ft | 467 kts | 249° |
| 2026-05-05 21:49 | 49.83742 | -83.99593 | 39636 ft | 467 kts | 248° |
| 2026-05-05 21:50 | 49.81319 | -84.08934 | 39645 ft | 467 kts | 248° |
| 2026-05-05 21:50 | 49.78890 | -84.18261 | 39646 ft | 467 kts | 248° |
| 2026-05-05 21:51 | 49.76457 | -84.27564 | 39645 ft | 467 kts | 248° |
| 2026-05-05 21:51 | 49.74016 | -84.36858 | 39651 ft | 466 kts | 248° |
| 2026-05-05 21:52 | 49.70349 | -84.50753 | 39656 ft | 465 kts | 248° |
| 2026-05-05 21:53 | 49.67897 | -84.59995 | 39654 ft | 464 kts | 248° |
| 2026-05-05 21:53 | 49.65442 | -84.69214 | 39660 ft | 464 kts | 248° |
| 2026-05-05 21:54 | 49.62985 | -84.78414 | 39665 ft | 464 kts | 248° |
| 2026-05-05 21:54 | 49.60519 | -84.87597 | 39698 ft | 463 kts | 248° |
| 2026-05-05 21:55 | 49.58048 | -84.96763 | 39721 ft | 463 kts | 248° |
| 2026-05-05 21:55 | 49.55570 | -85.05921 | 39721 ft | 463 kts | 248° |
| 2026-05-05 21:56 | 49.53085 | -85.15069 | 39727 ft | 463 kts | 248° |
| 2026-05-05 21:56 | 49.50591 | -85.24213 | 39730 ft | 463 kts | 248° |
| 2026-05-05 21:57 | 49.48092 | -85.33342 | 39730 ft | 463 kts | 248° |
| 2026-05-05 21:57 | 49.45601 | -85.42412 | 39729 ft | 464 kts | 248° |
| 2026-05-05 21:58 | 49.43081 | -85.51542 | 39730 ft | 464 kts | 248° |
| 2026-05-05 21:58 | 49.40554 | -85.60663 | 39730 ft | 464 kts | 248° |
| 2026-05-05 21:59 | 49.38018 | -85.69783 | 39730 ft | 465 kts | 248° |
| 2026-05-05 21:59 | 49.35471 | -85.78910 | 39734 ft | 465 kts | 248° |
| 2026-05-05 22:00 | 49.32918 | -85.88022 | 39738 ft | 465 kts | 248° |
| 2026-05-05 22:00 | 49.30357 | -85.97125 | 39739 ft | 465 kts | 247° |
| 2026-05-05 22:01 | 49.27791 | -86.06210 | 39738 ft | 465 kts | 247° |
| 2026-05-05 22:01 | 49.25221 | -86.15280 | 39739 ft | 464 kts | 247° |
| 2026-05-05 22:02 | 49.22646 | -86.24335 | 39739 ft | 464 kts | 247° |
| 2026-05-05 22:02 | 49.20063 | -86.33380 | 39740 ft | 464 kts | 247° |
| 2026-05-05 22:03 | 49.17478 | -86.42398 | 39739 ft | 463 kts | 247° |
| 2026-05-05 22:03 | 49.14886 | -86.51412 | 39740 ft | 463 kts | 247° |
| 2026-05-05 22:04 | 49.12288 | -86.60409 | 39739 ft | 463 kts | 247° |
| 2026-05-05 22:04 | 49.09687 | -86.69382 | 39738 ft | 462 kts | 247° |
| 2026-05-05 22:05 | 49.07081 | -86.78332 | 39738 ft | 462 kts | 247° |
| 2026-05-05 22:05 | 49.04470 | -86.87274 | 39739 ft | 462 kts | 247° |
| 2026-05-05 22:06 | 49.01855 | -86.96197 | 39740 ft | 461 kts | 247° |
| 2026-05-05 22:06 | 48.99230 | -87.05120 | 39746 ft | 462 kts | 247° |
| 2026-05-05 22:07 | 48.96596 | -87.14038 | 39748 ft | 462 kts | 247° |
| 2026-05-05 22:07 | 48.93957 | -87.22941 | 39748 ft | 462 kts | 247° |
| 2026-05-05 22:08 | 48.91310 | -87.31840 | 39749 ft | 462 kts | 247° |
| 2026-05-05 22:08 | 48.88659 | -87.40718 | 39748 ft | 461 kts | 246° |
| 2026-05-05 22:09 | 48.86005 | -87.49576 | 39748 ft | 461 kts | 246° |
| 2026-05-05 22:09 | 48.83348 | -87.58416 | 39756 ft | 460 kts | 246° |
| 2026-05-05 22:10 | 48.80703 | -87.67187 | 39757 ft | 460 kts | 246° |
| 2026-05-05 22:10 | 48.78033 | -87.76001 | 39756 ft | 460 kts | 246° |
| 2026-05-05 22:11 | 48.75355 | -87.84800 | 39765 ft | 459 kts | 246° |
| 2026-05-05 22:11 | 48.72678 | -87.93577 | 39782 ft | 459 kts | 246° |
| 2026-05-05 22:12 | 48.69998 | -88.02336 | 39786 ft | 459 kts | 246° |
| 2026-05-05 22:12 | 48.67310 | -88.11083 | 39794 ft | 459 kts | 246° |
| 2026-05-05 22:13 | 48.64615 | -88.19826 | 39804 ft | 458 kts | 246° |
| 2026-05-05 22:13 | 48.61916 | -88.28553 | 39804 ft | 458 kts | 246° |
| 2026-05-05 22:14 | 48.59206 | -88.37279 | 39804 ft | 458 kts | 246° |
| 2026-05-05 22:14 | 48.56492 | -88.45994 | 39813 ft | 458 kts | 246° |
| 2026-05-05 22:15 | 48.53772 | -88.54692 | 39812 ft | 459 kts | 246° |
| 2026-05-05 22:15 | 48.51044 | -88.63390 | 39825 ft | 459 kts | 246° |
| 2026-05-05 22:16 | 48.48310 | -88.72073 | 39826 ft | 459 kts | 246° |
| 2026-05-05 22:16 | 48.45566 | -88.80763 | 39812 ft | 459 kts | 246° |
| 2026-05-05 22:17 | 48.42815 | -88.89440 | 39829 ft | 459 kts | 246° |
| 2026-05-05 22:17 | 48.40051 | -88.98121 | 39815 ft | 460 kts | 246° |
| 2026-05-05 22:18 | 48.37283 | -89.06791 | 39829 ft | 460 kts | 246° |
| 2026-05-05 22:18 | 48.34509 | -89.15455 | 39821 ft | 459 kts | 246° |
| 2026-05-05 22:19 | 48.31731 | -89.24101 | 39817 ft | 459 kts | 246° |
| 2026-05-05 22:19 | 48.28946 | -89.32742 | 39829 ft | 460 kts | 246° |
| 2026-05-05 22:20 | 48.26126 | -89.41359 | 39812 ft | 460 kts | 243° |
| 2026-05-05 22:20 | 48.22584 | -89.49368 | 39815 ft | 461 kts | 236° |
| 2026-05-05 22:21 | 48.18784 | -89.57036 | 39824 ft | 461 kts | 235° |
| 2026-05-05 22:21 | 48.14909 | -89.64696 | 39826 ft | 461 kts | 235° |
| 2026-05-05 22:22 | 48.11038 | -89.72347 | 39825 ft | 461 kts | 235° |
| 2026-05-05 22:22 | 48.07167 | -89.80006 | 39812 ft | 461 kts | 235° |
| 2026-05-05 22:23 | 48.03932 | -89.86398 | 39825 ft | 460 kts | 235° |
| 2026-05-05 22:23 | 48.00092 | -89.93970 | 39829 ft | 460 kts | 235° |
| 2026-05-05 22:24 | 47.96200 | -90.01623 | 39827 ft | 460 kts | 235° |
| 2026-05-05 22:24 | 47.92346 | -90.09175 | 39819 ft | 460 kts | 235° |
| 2026-05-05 22:25 | 47.88465 | -90.16761 | 39819 ft | 460 kts | 235° |
| 2026-05-05 22:25 | 47.84584 | -90.24325 | 39812 ft | 459 kts | 235° |
| 2026-05-05 22:26 | 47.80702 | -90.31871 | 39829 ft | 459 kts | 235° |
| 2026-05-05 22:26 | 47.76815 | -90.39405 | 39839 ft | 458 kts | 235° |
| 2026-05-05 22:27 | 47.72935 | -90.46905 | 39850 ft | 458 kts | 235° |
| 2026-05-05 22:27 | 47.69053 | -90.54387 | 39860 ft | 457 kts | 235° |
| 2026-05-05 22:28 | 47.65173 | -90.61849 | 39860 ft | 456 kts | 235° |
| 2026-05-05 22:28 | 47.61294 | -90.69288 | 39863 ft | 456 kts | 235° |
| 2026-05-05 22:29 | 47.57406 | -90.76721 | 39868 ft | 455 kts | 235° |
| 2026-05-05 22:29 | 47.53527 | -90.84116 | 39870 ft | 455 kts | 235° |
| 2026-05-05 22:30 | 47.49644 | -90.91499 | 39868 ft | 454 kts | 235° |
| 2026-05-05 22:30 | 47.45761 | -90.98869 | 39870 ft | 454 kts | 235° |
| 2026-05-05 22:31 | 47.41875 | -91.06218 | 39877 ft | 454 kts | 235° |
| 2026-05-05 22:31 | 47.37987 | -91.13552 | 39878 ft | 454 kts | 234° |
| 2026-05-05 22:32 | 47.34094 | -91.20876 | 39879 ft | 453 kts | 234° |
| 2026-05-05 22:32 | 47.30204 | -91.28176 | 39879 ft | 453 kts | 234° |
| 2026-05-05 22:33 | 47.26306 | -91.35468 | 39879 ft | 453 kts | 234° |
| 2026-05-05 22:33 | 47.22405 | -91.42750 | 39879 ft | 453 kts | 234° |
| 2026-05-05 22:34 | 47.18504 | -91.50011 | 39878 ft | 452 kts | 234° |
| 2026-05-05 22:34 | 47.14601 | -91.57257 | 39879 ft | 452 kts | 234° |
| 2026-05-05 22:35 | 47.10699 | -91.64477 | 39878 ft | 451 kts | 234° |
| 2026-05-05 22:35 | 47.06794 | -91.71691 | 39878 ft | 451 kts | 234° |
| 2026-05-05 22:36 | 47.02896 | -91.78876 | 39878 ft | 450 kts | 234° |
| 2026-05-05 22:36 | 46.99021 | -91.85994 | 39878 ft | 449 kts | 234° |
| 2026-05-05 22:37 | 46.95123 | -91.93136 | 39878 ft | 449 kts | 234° |
| 2026-05-05 22:37 | 46.91225 | -92.00259 | 39888 ft | 448 kts | 234° |
| 2026-05-05 22:38 | 46.87321 | -92.07380 | 39882 ft | 448 kts | 234° |
| 2026-05-05 22:38 | 46.83419 | -92.14471 | 39879 ft | 447 kts | 234° |
| 2026-05-05 22:39 | 46.79514 | -92.21538 | 39877 ft | 447 kts | 233° |
| 2026-05-05 22:39 | 46.75194 | -92.28109 | 39887 ft | 449 kts | 229° |
| 2026-05-05 22:40 | 46.70823 | -92.34601 | 39896 ft | 448 kts | 229° |
| 2026-05-05 22:40 | 46.66489 | -92.41111 | 39896 ft | 447 kts | 230° |
| 2026-05-05 22:41 | 46.62164 | -92.47621 | 39897 ft | 447 kts | 230° |
| 2026-05-05 22:41 | 46.57841 | -92.54122 | 39898 ft | 446 kts | 230° |
| 2026-05-05 22:42 | 46.53520 | -92.60608 | 39906 ft | 447 kts | 230° |
| 2026-05-05 22:42 | 46.49196 | -92.67081 | 39919 ft | 447 kts | 230° |
| 2026-05-05 22:43 | 46.44870 | -92.73544 | 39924 ft | 447 kts | 230° |
| 2026-05-05 22:43 | 46.40538 | -92.80000 | 39925 ft | 447 kts | 230° |
| 2026-05-05 22:43 | 46.38390 | -92.83192 | 39717 ft | 438 kts | 230° |
| 2026-05-05 22:44 | 46.36261 | -92.86354 | 39015 ft | 440 kts | 230° |
| 2026-05-05 22:44 | 46.34124 | -92.89528 | 38348 ft | 440 kts | 230° |
| 2026-05-05 22:44 | 46.31986 | -92.92697 | 37701 ft | 440 kts | 230° |
| 2026-05-05 22:44 | 46.29844 | -92.95868 | 37031 ft | 440 kts | 230° |
| 2026-05-05 22:45 | 46.27712 | -92.99021 | 36358 ft | 439 kts | 230° |
| 2026-05-05 22:45 | 46.25573 | -93.02180 | 35671 ft | 439 kts | 230° |
| 2026-05-05 22:45 | 46.23449 | -93.05311 | 35153 ft | 434 kts | 230° |
| 2026-05-05 22:45 | 46.21345 | -93.08409 | 34634 ft | 430 kts | 230° |
| 2026-05-05 22:46 | 46.19257 | -93.11481 | 34107 ft | 426 kts | 230° |
| 2026-05-05 22:46 | 46.17188 | -93.14523 | 33581 ft | 423 kts | 230° |
| 2026-05-05 22:46 | 46.15140 | -93.17530 | 33058 ft | 419 kts | 230° |
| 2026-05-05 22:46 | 46.13132 | -93.20476 | 32547 ft | 415 kts | 230° |
| 2026-05-05 22:47 | 46.11116 | -93.23428 | 32033 ft | 411 kts | 230° |
| 2026-05-05 22:47 | 46.09116 | -93.26357 | 31528 ft | 408 kts | 230° |
| 2026-05-05 22:47 | 46.07137 | -93.29250 | 31027 ft | 404 kts | 230° |
| 2026-05-05 22:47 | 46.05176 | -93.32111 | 30538 ft | 399 kts | 230° |
| 2026-05-05 22:48 | 46.03236 | -93.34941 | 30047 ft | 395 kts | 230° |
| 2026-05-05 22:48 | 46.01297 | -93.37715 | 29571 ft | 392 kts | 228° |
| 2026-05-05 22:48 | 45.99253 | -93.40289 | 29104 ft | 389 kts | 226° |
| 2026-05-05 22:48 | 45.97201 | -93.42791 | 28626 ft | 385 kts | 226° |
| 2026-05-05 22:49 | 45.95178 | -93.45277 | 28144 ft | 381 kts | 226° |
| 2026-05-05 22:49 | 45.93182 | -93.47747 | 27674 ft | 376 kts | 227° |
| 2026-05-05 22:49 | 45.91214 | -93.50195 | 27199 ft | 373 kts | 227° |
| 2026-05-05 22:49 | 45.89268 | -93.52620 | 26727 ft | 368 kts | 227° |
| 2026-05-05 22:50 | 45.87342 | -93.55020 | 26267 ft | 365 kts | 226° |
| 2026-05-05 22:50 | 45.85434 | -93.57399 | 25796 ft | 362 kts | 226° |
| 2026-05-05 22:50 | 45.83539 | -93.59762 | 25323 ft | 359 kts | 226° |
| 2026-05-05 22:50 | 45.81657 | -93.62105 | 24866 ft | 357 kts | 226° |
| 2026-05-05 22:51 | 45.79786 | -93.64429 | 24395 ft | 355 kts | 226° |
| 2026-05-05 22:51 | 45.77783 | -93.66506 | 23919 ft | 359 kts | 215° |
| 2026-05-05 22:51 | 45.75440 | -93.67814 | 23561 ft | 365 kts | 200° |
| 2026-05-05 22:51 | 45.72878 | -93.68121 | 23058 ft | 377 kts | 182° |
| 2026-05-05 22:52 | 45.70279 | -93.67320 | 22530 ft | 387 kts | 167° |
| 2026-05-05 22:52 | 45.67744 | -93.65986 | 22004 ft | 388 kts | 165° |
| 2026-05-05 22:52 | 45.65230 | -93.64596 | 21477 ft | 388 kts | 165° |
| 2026-05-05 22:52 | 45.62714 | -93.63219 | 20967 ft | 387 kts | 165° |
| 2026-05-05 22:53 | 45.60199 | -93.61857 | 20469 ft | 385 kts | 165° |
| 2026-05-05 22:53 | 45.57702 | -93.60514 | 20020 ft | 383 kts | 165° |
| 2026-05-05 22:53 | 45.55224 | -93.59171 | 19575 ft | 380 kts | 165° |
| 2026-05-05 22:53 | 45.52764 | -93.57826 | 19131 ft | 377 kts | 165° |
| 2026-05-05 22:54 | 45.50319 | -93.56492 | 18682 ft | 375 kts | 165° |
| 2026-05-05 22:54 | 45.47889 | -93.55171 | 18240 ft | 373 kts | 165° |
| 2026-05-05 22:54 | 45.45477 | -93.53864 | 17802 ft | 370 kts | 165° |
| 2026-05-05 22:54 | 45.43075 | -93.52563 | 17356 ft | 368 kts | 165° |
| 2026-05-05 22:55 | 45.40699 | -93.51276 | 16999 ft | 363 kts | 165° |
| 2026-05-05 22:55 | 45.38340 | -93.50002 | 16560 ft | 361 kts | 165° |
| 2026-05-05 22:55 | 45.35993 | -93.48735 | 16129 ft | 360 kts | 165° |
| 2026-05-05 22:55 | 45.33659 | -93.47476 | 15702 ft | 358 kts | 165° |
| 2026-05-05 22:56 | 45.31330 | -93.46227 | 15266 ft | 357 kts | 165° |
| 2026-05-05 22:56 | 45.29011 | -93.44991 | 14838 ft | 356 kts | 165° |
| 2026-05-05 22:56 | 45.26694 | -93.43754 | 14409 ft | 355 kts | 165° |
| 2026-05-05 22:56 | 45.24392 | -93.42536 | 13987 ft | 352 kts | 164° |
| 2026-05-05 22:57 | 45.22141 | -93.41339 | 13669 ft | 346 kts | 164° |
| 2026-05-05 22:57 | 45.19900 | -93.40144 | 13528 ft | 333 kts | 164° |
| 2026-05-05 22:57 | 45.17798 | -93.39025 | 13390 ft | 321 kts | 165° |
| 2026-05-05 22:57 | 45.15711 | -93.37917 | 13133 ft | 314 kts | 165° |
| 2026-05-05 22:58 | 45.13683 | -93.36835 | 12799 ft | 311 kts | 163° |
| 2026-05-05 22:58 | 45.11695 | -93.35618 | 12473 ft | 311 kts | 160° |
| 2026-05-05 22:58 | 45.09733 | -93.34353 | 12147 ft | 309 kts | 160° |
| 2026-05-05 22:58 | 45.07779 | -93.33102 | 11825 ft | 307 kts | 160° |
| 2026-05-05 22:59 | 45.05854 | -93.31916 | 11510 ft | 304 kts | 163° |
| 2026-05-05 22:59 | 45.03806 | -93.31192 | 11190 ft | 297 kts | 176° |
| 2026-05-05 22:59 | 45.01786 | -93.30792 | 10885 ft | 294 kts | 177° |
| 2026-05-05 22:59 | 44.99753 | -93.30428 | 10577 ft | 291 kts | 177° |
| 2026-05-05 23:00 | 44.95756 | -93.29692 | 9973 ft | 288 kts | 177° |
| 2026-05-05 23:00 | 44.93767 | -93.29326 | 9680 ft | 291 kts | 176° |
| 2026-05-05 23:00 | 44.91747 | -93.28955 | 9385 ft | 293 kts | 176° |
| 2026-05-05 23:01 | 44.89769 | -93.28582 | 9222 ft | 281 kts | 176° |
| 2026-05-05 23:01 | 44.87870 | -93.28223 | 9086 ft | 269 kts | 176° |
| 2026-05-05 23:01 | 44.86074 | -93.27886 | 8955 ft | 258 kts | 176° |
| 2026-05-05 23:01 | 44.84330 | -93.27560 | 8801 ft | 248 kts | 176° |
| 2026-05-05 23:02 | 44.82635 | -93.27245 | 8596 ft | 244 kts | 177° |
| 2026-05-05 23:02 | 44.80951 | -93.26935 | 8362 ft | 244 kts | 177° |
| 2026-05-05 23:02 | 44.79275 | -93.26534 | 8073 ft | 246 kts | 168° |
| 2026-05-05 23:02 | 44.77783 | -93.25332 | 7759 ft | 252 kts | 135° |
| 2026-05-05 23:03 | 44.76747 | -93.23352 | 7470 ft | 252 kts | 122° |
| 2026-05-05 23:03 | 44.75847 | -93.21240 | 7173 ft | 252 kts | 122° |
| 2026-05-05 23:03 | 44.74955 | -93.19136 | 6876 ft | 250 kts | 121° |
| 2026-05-05 23:03 | 44.74080 | -93.17024 | 6574 ft | 249 kts | 121° |
| 2026-05-05 23:04 | 44.73210 | -93.14918 | 6274 ft | 249 kts | 121° |
| 2026-05-05 23:04 | 44.72341 | -93.12820 | 5982 ft | 247 kts | 121° |
| 2026-05-05 23:04 | 44.71476 | -93.10728 | 5723 ft | 247 kts | 121° |
| 2026-05-05 23:04 | 44.70614 | -93.08639 | 5478 ft | 247 kts | 121° |
| 2026-05-05 23:05 | 44.69753 | -93.06559 | 5225 ft | 246 kts | 121° |
| 2026-05-05 23:05 | 44.69050 | -93.04388 | 4962 ft | 244 kts | 101° |
| 2026-05-05 23:05 | 44.69106 | -93.02061 | 4714 ft | 237 kts | 68° |
| 2026-05-05 23:05 | 44.69965 | -93.00159 | 4474 ft | 228 kts | 38° |
| 2026-05-05 23:06 | 44.71193 | -92.98774 | 4227 ft | 226 kts | 31° |
| 2026-05-05 23:06 | 44.72480 | -92.97518 | 4026 ft | 224 kts | 27° |
| 2026-05-05 23:06 | 44.73912 | -92.96833 | 3865 ft | 215 kts | 357° |
| 2026-05-05 23:06 | 44.75320 | -92.97252 | 3611 ft | 204 kts | 332° |
| 2026-05-05 23:07 | 44.76558 | -92.98212 | 3367 ft | 202 kts | 325° |
| 2026-05-05 23:07 | 44.77741 | -92.99251 | 3119 ft | 198 kts | 325° |
| 2026-05-05 23:07 | 44.78767 | -93.00451 | 3021 ft | 189 kts | 308° |
| 2026-05-05 23:07 | 44.79463 | -93.01936 | 2980 ft | 174 kts | 300° |
| 2026-05-05 23:08 | 44.80082 | -93.03362 | 2988 ft | 169 kts | 301° |
| 2026-05-05 23:08 | 44.80694 | -93.04756 | 2975 ft | 165 kts | 301° |
| 2026-05-05 23:08 | 44.81098 | -93.05678 | 3003 ft | 162 kts | 301° |
| 2026-05-05 23:08 | 44.81683 | -93.07013 | 2950 ft | 158 kts | 300° |
| 2026-05-05 23:09 | 44.82225 | -93.08305 | 2766 ft | 154 kts | 300° |
| 2026-05-05 23:09 | 44.82790 | -93.09635 | 2581 ft | 157 kts | 302° |
| 2026-05-05 23:09 | 44.83371 | -93.10906 | 2393 ft | 154 kts | 301° |
| 2026-05-05 23:09 | 44.83925 | -93.12159 | 2157 ft | 143 kts | 300° |
| 2026-05-05 23:10 | 44.84403 | -93.13311 | 1962 ft | 136 kts | 299° |
| 2026-05-05 23:10 | 44.84902 | -93.14445 | 1785 ft | 135 kts | 301° |
| 2026-05-05 23:10 | 44.85386 | -93.15558 | 1595 ft | 131 kts | 301° |
| 2026-05-05 23:10 | 44.85845 | -93.16640 | 1432 ft | 129 kts | 302° |
| 2026-05-05 23:11 | 44.86310 | -93.17727 | 1242 ft | 128 kts | 302° |
| 2026-05-05 23:11 | 44.86749 | -93.18785 | 1093 ft | 125 kts | 302° |
| 2026-05-05 23:11 | 44.87213 | -93.19828 | 944 ft | 126 kts | 306° |
| 2026-05-05 23:11 | 44.87676 | -93.20878 | 833 ft | 122 kts | 303° |
| 2026-05-05 23:12 | 44.88042 | -93.21715 | 827 ft | 65 kts | 301° |
| 2026-05-05 23:12 | 44.88173 | -93.22020 | 827 ft | 14 kts | 301° |
| 2026-05-05 23:12 | 44.88207 | -93.22098 | 831 ft | 6 kts | 301° |
| 2026-05-05 23:12 | 44.88240 | -93.22121 | 832 ft | 6 kts | 357° |
| 2026-05-05 23:13 | 44.88288 | -93.22099 | 831 ft | 7 kts | 30° |
| 2026-05-05 23:13 | 44.88309 | -93.22043 | 830 ft | 7 kts | 95° |
| 2026-05-05 23:13 | 44.88279 | -93.21962 | 823 ft | 14 kts | 121° |
| 2026-05-05 23:13 | 44.88215 | -93.21812 | 826 ft | 20 kts | 122° |
| 2026-05-05 23:14 | 44.88139 | -93.21638 | 827 ft | 17 kts | 121° |
| 2026-05-05 23:14 | 44.88081 | -93.21504 | 831 ft | 16 kts | 121° |
| 2026-05-05 23:14 | 44.88050 | -93.21432 | 828 ft | 4 kts | 121° |
| 2026-05-05 23:14 | 44.88044 | -93.21406 | 831 ft | 3 kts | 94° |
| 2026-05-05 23:15 | 44.88054 | -93.21385 | 831 ft | 2 kts | 46° |
| 2026-05-05 23:15 | 44.88073 | -93.21362 | 832 ft | 5 kts | 41° |
| 2026-05-05 23:15 | 44.88100 | -93.21326 | 832 ft | 3 kts | 44° |
| 2026-05-05 23:15 | 44.88112 | -93.21309 | 831 ft | 1 kts | 45° |
| 2026-05-05 23:16 | 44.88117 | -93.21303 | 827 ft | 0 kts | 45° |